Airfield :
LOGIN :

Register | Disclaimer

   EN    FR    IT 

 










Legend :    VFR   Marginal VFR   IFR   Intensive IFR   Very Intensive IFR
Visi :
Ceiling :
>= 8 km
>= 3000ft
5 to 8 km
1000 to 3000 ft
1500m to 5 km
500 to 1000 ft
800 to 1500m
200 to 500 ft
< 800m
< 200 ft
Symbols :   Thunderstorms  Fog  Heavy snow  Heavy precipitations  Wind > 20 kt
SIGMETs :     Misc.  Thunderstorms  Icing  Turbulence  Mountain Waves  Volcanic Ashes







- Airport Elevation : 13 ft
- IATA code : OST


EBOS - Oostend bruges Int.

CURRENT METAR :
  • 222120Z 34012KT 9999 FEW045 12/10 Q1017 NOSIG

EXPIRED METARs :
  • 222050Z 34011KT 9999 FEW045 13/10 Q1017 NOSIG
  • 222020Z 34010KT 9999 FEW045 13/10 Q1016 NOSIG
  • 221950Z 35008KT 9999 FEW045 13/10 Q1016 NOSIG
  • 221920Z 36007KT 9999 FEW045 14/11 Q1016 NOSIG
  • 221850Z 35008KT 9999 FEW045 14/11 Q1016 NOSIG

TAF TAF EBOS
Valid from the 22 at 18:00 until the 24 at 00:00 UTC


221700Z 2218/2324 01010KT 9999 FEW040
PROB30
TEMPO 2301/2304 4500 SHRA RA
No reported NOTAMs for that airfield.



MET'MAP, your aeronautical weather chart ! - Copyright ORBIFLY December 2007 - Disclaimer

ORBIFLY MET'MAP TEAM :

Programming & Development : Alexandra Zaïnal
Concept & Development : Baudouin d'Aumeries
Co-Development & Prog : Marc-Olivier Méhu
Technical & hardware support : Manuel Goepfert

Contact : metmap@orbifly.com




SOURCES & CREDITS :

   NOAA